Kezdőlap
METAR-TAF:

METAR-TAF

Repülőterek :

South Jersey Regional Airport

Mount Holly, New Jersey, Amerikai Egyesült Államok

földrajzi szélesség: 39-56-26N, földrajzi hosszúság: 074-50-28W, magasság: 16 m

Jelenlegi meteorológiai megfigyelések

A jelentés 46 perccel ezelõtt készült, 12:54 UTC
Északnyugati szél 3 kt
Hőmérséklet -7°C
Páratartalom 62%
Légköri nyomás 1032 hPa
Látótávolság: 16.1 km
Derült ég

METAR: KVAY 211254Z AUTO 32003KT 10SM CLR M07/M13 A3048 RMK AO2 SLP322 T10721128

Idő: 08:40 (13:40 UTC)


TAF: hiányzik

Meteorológiai megfigyelések és előrejelzések több, mint 4000 repülőtéren (METAR és TAF jelentéseket).

A térképen piros és sárga pontok jelzik az elérhető meteorológiai állomásokat.

Mozgassa az egeret a pont fölött, hogy megjelenjen az állomás neve.

Azután kattintson az időjárási megfigyelések és előrejelzések megtekintéséhez.

A térkép megváltoztatása: kattintson a fekete keresztel jelölt zöld gombra ráközelítéshez, a vonallal jelölt zöld gombra távolításhoz, vagy a zöld nyilakra a szomszédos térképek eléréséhez.


METAR-TAF: